sensor_id;sensor_type;location;lat;lon;timestamp;pressure;altitude;pressure_sealevel;temperature;humidity
16451;BME280;12243;42.708;23.310;2022-12-07T00:01:12;95016.78;;;6.52;100.00
16451;BME280;12243;42.708;23.310;2022-12-07T00:03:40;95020.72;;;6.45;100.00
16451;BME280;12243;42.708;23.310;2022-12-07T00:06:09;95021.53;;;6.46;100.00
16451;BME280;12243;42.708;23.310;2022-12-07T00:08:36;95021.97;;;6.52;100.00
16451;BME280;12243;42.708;23.310;2022-12-07T00:11:05;95017.91;;;6.48;100.00
16451;BME280;12243;42.708;23.310;2022-12-07T00:13:35;95012.44;;;6.40;100.00
16451;BME280;12243;42.708;23.310;2022-12-07T00:16:03;95003.84;;;6.39;100.00
16451;BME280;12243;42.708;23.310;2022-12-07T00:18:32;95001.47;;;6.36;100.00
16451;BME280;12243;42.708;23.310;2022-12-07T00:20:59;95013.88;;;6.31;100.00
16451;BME280;12243;42.708;23.310;2022-12-07T00:23:27;95009.53;;;6.32;100.00
16451;BME280;12243;42.708;23.310;2022-12-07T00:25:54;95014.28;;;6.38;100.00
16451;BME280;12243;42.708;23.310;2022-12-07T00:28:21;95004.16;;;6.35;100.00
16451;BME280;12243;42.708;23.310;2022-12-07T00:30:50;95019.69;;;6.35;100.00
16451;BME280;12243;42.708;23.310;2022-12-07T00:33:16;95019.44;;;6.38;100.00
16451;BME280;12243;42.708;23.310;2022-12-07T00:35:43;95015.31;;;6.48;100.00
16451;BME280;12243;42.708;23.310;2022-12-07T00:38:10;95010.69;;;6.53;100.00
16451;BME280;12243;42.708;23.310;2022-12-07T00:40:37;95028.59;;;6.56;100.00
16451;BME280;12243;42.708;23.310;2022-12-07T00:43:06;95020.28;;;6.64;100.00
16451;BME280;12243;42.708;23.310;2022-12-07T00:45:33;95018.63;;;6.76;100.00
16451;BME280;12243;42.708;23.310;2022-12-07T00:48:02;95012.63;;;6.75;100.00
16451;BME280;12243;42.708;23.310;2022-12-07T00:50:28;95016.47;;;6.70;100.00
16451;BME280;12243;42.708;23.310;2022-12-07T00:52:55;95013.44;;;6.76;100.00
16451;BME280;12243;42.708;23.310;2022-12-07T00:55:22;95014.06;;;6.79;100.00
16451;BME280;12243;42.708;23.310;2022-12-07T00:57:49;95013.25;;;6.79;100.00
16451;BME280;12243;42.708;23.310;2022-12-07T01:00:16;95006.41;;;6.78;100.00
16451;BME280;12243;42.708;23.310;2022-12-07T01:02:43;95002.69;;;6.82;100.00
16451;BME280;12243;42.708;23.310;2022-12-07T01:05:11;94998.94;;;6.86;100.00
16451;BME280;12243;42.708;23.310;2022-12-07T01:07:38;95004.13;;;6.86;100.00
16451;BME280;12243;42.708;23.310;2022-12-07T01:10:06;95004.97;;;6.74;100.00
16451;BME280;12243;42.708;23.310;2022-12-07T01:12:33;95008.28;;;6.76;100.00
16451;BME280;12243;42.708;23.310;2022-12-07T01:15:00;94998.94;;;6.86;100.00
16451;BME280;12243;42.708;23.310;2022-12-07T01:17:28;95000.63;;;6.87;100.00
16451;BME280;12243;42.708;23.310;2022-12-07T01:19:55;94995.72;;;6.82;100.00
16451;BME280;12243;42.708;23.310;2022-12-07T01:22:23;94986.72;;;6.88;100.00
16451;BME280;12243;42.708;23.310;2022-12-07T01:24:50;94990.69;;;6.81;100.00
16451;BME280;12243;42.708;23.310;2022-12-07T01:27:17;94997.09;;;6.88;100.00
16451;BME280;12243;42.708;23.310;2022-12-07T01:29:44;94987.44;;;6.90;100.00
16451;BME280;12243;42.708;23.310;2022-12-07T01:32:11;94993.56;;;6.89;100.00
16451;BME280;12243;42.708;23.310;2022-12-07T01:34:38;94993.56;;;6.89;100.00
16451;BME280;12243;42.708;23.310;2022-12-07T01:37:05;94985.78;;;6.89;100.00
16451;BME280;12243;42.708;23.310;2022-12-07T01:39:33;94988.03;;;6.93;100.00
16451;BME280;12243;42.708;23.310;2022-12-07T01:42:00;94985.56;;;6.92;100.00
16451;BME280;12243;42.708;23.310;2022-12-07T01:44:29;94988.03;;;6.93;100.00
16451;BME280;12243;42.708;23.310;2022-12-07T01:47:00;94991.69;;;6.91;100.00
16451;BME280;12243;42.708;23.310;2022-12-07T01:49:37;94982.66;;;6.97;100.00
16451;BME280;12243;42.708;23.310;2022-12-07T01:52:20;94986.31;;;6.94;99.73
16451;BME280;12243;42.708;23.310;2022-12-07T01:55:13;94974.72;;;6.87;100.00
16451;BME280;12243;42.708;23.310;2022-12-07T01:57:58;94964.59;;;6.84;100.00
16451;BME280;12243;42.708;23.310;2022-12-07T02:00:35;94972.34;;;6.84;100.00
16451;BME280;12243;42.708;23.310;2022-12-07T02:03:09;94979.50;;;6.80;100.00
16451;BME280;12243;42.708;23.310;2022-12-07T02:05:40;94970.19;;;6.78;100.00
16451;BME280;12243;42.708;23.310;2022-12-07T02:08:11;94968.28;;;6.80;100.00
16451;BME280;12243;42.708;23.310;2022-12-07T02:10:43;94966.84;;;6.76;100.00
16451;BME280;12243;42.708;23.310;2022-12-07T02:13:18;94962.50;;;6.76;100.00
16451;BME280;12243;42.708;23.310;2022-12-07T02:16:12;94970.88;;;6.80;100.00
16451;BME280;12243;42.708;23.310;2022-12-07T02:18:59;94969.03;;;6.82;100.00
16451;BME280;12243;42.708;23.310;2022-12-07T02:21:45;94969.56;;;6.87;100.00
16451;BME280;12243;42.708;23.310;2022-12-07T02:24:45;94969.56;;;6.87;100.00
16451;BME280;12243;42.708;23.310;2022-12-07T02:27:46;94961.53;;;6.90;100.00
16451;BME280;12243;42.708;23.310;2022-12-07T02:30:22;94953.50;;;6.82;100.00
16451;BME280;12243;42.708;23.310;2022-12-07T02:33:00;94960.97;;;6.74;99.98
16451;BME280;12243;42.708;23.310;2022-12-07T02:35:32;94960.88;;;6.62;100.00
16451;BME280;12243;42.708;23.310;2022-12-07T02:38:04;94960.16;;;6.60;100.00
16451;BME280;12243;42.708;23.310;2022-12-07T02:40:39;94958.19;;;6.64;100.00
16451;BME280;12243;42.708;23.310;2022-12-07T02:43:10;94961.41;;;6.55;100.00
16451;BME280;12243;42.708;23.310;2022-12-07T02:45:42;94960.06;;;6.49;100.00
16451;BME280;12243;42.708;23.310;2022-12-07T02:48:16;94952.72;;;6.43;100.00
16451;BME280;12243;42.708;23.310;2022-12-07T02:50:45;94952.44;;;6.35;100.00
16451;BME280;12243;42.708;23.310;2022-12-07T02:53:33;94957.69;;;6.33;100.00
16451;BME280;12243;42.708;23.310;2022-12-07T02:56:06;94949.31;;;6.30;100.00
16451;BME280;12243;42.708;23.310;2022-12-07T02:58:44;94952.84;;;6.29;100.00
16451;BME280;12243;42.708;23.310;2022-12-07T03:01:25;94945.78;;;6.31;100.00
16451;BME280;12243;42.708;23.310;2022-12-07T03:04:02;94941.69;;;6.28;100.00
16451;BME280;12243;42.708;23.310;2022-12-07T03:06:34;94936.31;;;6.31;100.00
16451;BME280;12243;42.708;23.310;2022-12-07T03:09:08;94937.94;;;6.32;100.00
16451;BME280;12243;42.708;23.310;2022-12-07T03:11:46;94935.44;;;6.31;100.00
16451;BME280;12243;42.708;23.310;2022-12-07T03:14:17;94942.28;;;6.32;100.00
16451;BME280;12243;42.708;23.310;2022-12-07T03:16:51;94937.81;;;6.34;100.00
16451;BME280;12243;42.708;23.310;2022-12-07T03:19:22;94935.97;;;6.36;100.00
16451;BME280;12243;42.708;23.310;2022-12-07T03:21:54;94937.13;;;6.32;100.00
16451;BME280;12243;42.708;23.310;2022-12-07T03:24:27;94937.31;;;6.29;100.00
16451;BME280;12243;42.708;23.310;2022-12-07T03:27:02;94932.56;;;6.35;100.00
16451;BME280;12243;42.708;23.310;2022-12-07T03:29:34;94938.16;;;6.29;100.00
16451;BME280;12243;42.708;23.310;2022-12-07T03:32:06;94946.03;;;6.28;100.00
16451;BME280;12243;42.708;23.310;2022-12-07T03:34:39;94946.03;;;6.28;100.00
16451;BME280;12243;42.708;23.310;2022-12-07T03:37:12;94946.41;;;6.34;100.00
16451;BME280;12243;42.708;23.310;2022-12-07T03:39:46;94939.88;;;6.41;100.00
16451;BME280;12243;42.708;23.310;2022-12-07T03:42:16;94929.66;;;6.40;100.00
16451;BME280;12243;42.708;23.310;2022-12-07T03:44:43;94935.84;;;6.37;100.00
16451;BME280;12243;42.708;23.310;2022-12-07T03:47:14;94937.75;;;6.35;100.00
16451;BME280;12243;42.708;23.310;2022-12-07T03:49:45;94943.53;;;6.39;100.00
16451;BME280;12243;42.708;23.310;2022-12-07T03:52:22;94942.59;;;6.40;100.00
16451;BME280;12243;42.708;23.310;2022-12-07T03:54:55;94941.66;;;6.41;100.00
16451;BME280;12243;42.708;23.310;2022-12-07T03:57:25;94935.66;;;6.40;100.00
16451;BME280;12243;42.708;23.310;2022-12-07T03:59:54;94931.41;;;6.39;100.00
16451;BME280;12243;42.708;23.310;2022-12-07T04:02:23;94933.28;;;6.37;100.00
16451;BME280;12243;42.708;23.310;2022-12-07T04:04:51;94939.59;;;6.46;100.00
16451;BME280;12243;42.708;23.310;2022-12-07T04:07:18;94928.41;;;6.33;100.00
16451;BME280;12243;42.708;23.310;2022-12-07T04:09:45;94924.72;;;6.24;100.00
16451;BME280;12243;42.708;23.310;2022-12-07T04:12:12;94928.84;;;6.27;100.00
16451;BME280;12243;42.708;23.310;2022-12-07T04:14:39;94926.97;;;6.29;100.00
16451;BME280;12243;42.708;23.310;2022-12-07T04:17:06;94934.75;;;6.29;100.00
16451;BME280;12243;42.708;23.310;2022-12-07T04:19:34;94917.03;;;6.23;100.00
16451;BME280;12243;42.708;23.310;2022-12-07T04:22:03;94926.25;;;6.27;100.00
16451;BME280;12243;42.708;23.310;2022-12-07T04:24:30;94923.56;;;6.28;100.00
16451;BME280;12243;42.708;23.310;2022-12-07T04:26:57;94923.66;;;6.27;100.00
16451;BME280;12243;42.708;23.310;2022-12-07T04:29:24;94933.31;;;6.25;100.00
16451;BME280;12243;42.708;23.310;2022-12-07T04:31:52;94937.66;;;6.24;100.00
16451;BME280;12243;42.708;23.310;2022-12-07T04:34:19;94930.19;;;6.19;100.00
16451;BME280;12243;42.708;23.310;2022-12-07T04:36:48;94927.19;;;6.13;100.00
16451;BME280;12243;42.708;23.310;2022-12-07T04:39:20;94933.41;;;6.10;100.00
16451;BME280;12243;42.708;23.310;2022-12-07T04:41:47;94932.88;;;6.18;100.00
16451;BME280;12243;42.708;23.310;2022-12-07T04:44:14;94938.13;;;6.16;100.00
16451;BME280;12243;42.708;23.310;2022-12-07T04:46:42;94932.13;;;6.03;100.00
16451;BME280;12243;42.708;23.310;2022-12-07T04:49:09;94939.75;;;5.92;100.00
16451;BME280;12243;42.708;23.310;2022-12-07T04:51:36;94939.94;;;5.89;100.00
16451;BME280;12243;42.708;23.310;2022-12-07T04:54:07;94937.16;;;5.92;100.00
16451;BME280;12243;42.708;23.310;2022-12-07T04:56:35;94937.28;;;5.90;100.00
16451;BME280;12243;42.708;23.310;2022-12-07T04:59:02;94941.47;;;5.93;100.00
16451;BME280;12243;42.708;23.310;2022-12-07T05:01:29;94941.47;;;5.93;100.00
16451;BME280;12243;42.708;23.310;2022-12-07T05:03:57;94943.66;;;5.85;100.00
16451;BME280;12243;42.708;23.310;2022-12-07T05:06:23;94946.78;;;5.90;100.00
16451;BME280;12243;42.708;23.310;2022-12-07T05:08:50;94942.66;;;5.87;100.00
16451;BME280;12243;42.708;23.310;2022-12-07T05:11:19;94945.75;;;5.80;100.00
16451;BME280;12243;42.708;23.310;2022-12-07T05:14:03;94945.00;;;5.78;100.00
16451;BME280;12243;42.708;23.310;2022-12-07T05:16:30;94933.97;;;5.76;100.00
16451;BME280;12243;42.708;23.310;2022-12-07T05:19:05;94934.78;;;5.76;100.00
16451;BME280;12243;42.708;23.310;2022-12-07T05:21:32;94925.47;;;5.73;100.00
16451;BME280;12243;42.708;23.310;2022-12-07T05:23:59;94937.88;;;5.68;100.00
16451;BME280;12243;42.708;23.310;2022-12-07T05:26:27;94932.72;;;5.68;100.00
16451;BME280;12243;42.708;23.310;2022-12-07T05:28:55;94938.06;;;5.65;100.00
16451;BME280;12243;42.708;23.310;2022-12-07T05:31:23;94935.19;;;5.70;100.00
16451;BME280;12243;42.708;23.310;2022-12-07T05:33:50;94935.06;;;5.71;100.00
16451;BME280;12243;42.708;23.310;2022-12-07T05:36:17;94936.81;;;5.71;100.00
16451;BME280;12243;42.708;23.310;2022-12-07T05:38:45;94939.31;;;5.72;100.00
16451;BME280;12243;42.708;23.310;2022-12-07T05:41:14;94933.97;;;5.76;100.00
16451;BME280;12243;42.708;23.310;2022-12-07T05:43:56;94943.16;;;5.80;100.00
16451;BME280;12243;42.708;23.310;2022-12-07T05:46:23;94936.53;;;5.88;100.00
16451;BME280;12243;42.708;23.310;2022-12-07T05:48:50;94932.94;;;5.91;100.00
16451;BME280;12243;42.708;23.310;2022-12-07T05:51:20;94929.88;;;5.99;100.00
16451;BME280;12243;42.708;23.310;2022-12-07T05:53:46;94930.19;;;5.94;100.00
16451;BME280;12243;42.708;23.310;2022-12-07T05:56:14;94920.88;;;6.04;100.00
16451;BME280;12243;42.708;23.310;2022-12-07T05:58:41;94918.91;;;5.95;100.00
16451;BME280;12243;42.708;23.310;2022-12-07T06:01:26;94919.06;;;5.92;100.00
16451;BME280;12243;42.708;23.310;2022-12-07T06:03:53;94923.75;;;5.87;100.00
16451;BME280;12243;42.708;23.310;2022-12-07T06:06:20;94927.97;;;5.88;100.00
16451;BME280;12243;42.708;23.310;2022-12-07T06:08:47;94926.81;;;5.92;100.00
16451;BME280;12243;42.708;23.310;2022-12-07T06:11:14;94928.78;;;5.88;100.00
16451;BME280;12243;42.708;23.310;2022-12-07T06:13:59;94927.34;;;5.84;100.00
16451;BME280;12243;42.708;23.310;2022-12-07T06:16:27;94935.72;;;5.88;100.00
16451;BME280;12243;42.708;23.310;2022-12-07T06:18:54;94936.66;;;5.87;100.00
16451;BME280;12243;42.708;23.310;2022-12-07T06:21:21;94933.13;;;5.88;100.00
16451;BME280;12243;42.708;23.310;2022-12-07T06:23:48;94925.94;;;5.93;100.00
16451;BME280;12243;42.708;23.310;2022-12-07T06:26:15;94933.75;;;5.91;100.00
16451;BME280;12243;42.708;23.310;2022-12-07T06:28:41;94939.38;;;5.98;100.00
16451;BME280;12243;42.708;23.310;2022-12-07T06:31:09;94932.44;;;5.99;100.00
16451;BME280;12243;42.708;23.310;2022-12-07T06:33:37;94929.34;;;6.06;100.00
16451;BME280;12243;42.708;23.310;2022-12-07T06:36:05;94945.47;;;6.10;100.00
16451;BME280;12243;42.708;23.310;2022-12-07T06:38:31;94946.44;;;6.22;100.00
16451;BME280;12243;42.708;23.310;2022-12-07T06:40:58;94953.66;;;6.16;100.00
16451;BME280;12243;42.708;23.310;2022-12-07T06:43:25;94951.59;;;6.22;100.00
16451;BME280;12243;42.708;23.310;2022-12-07T06:45:53;94954.19;;;6.22;100.00
16451;BME280;12243;42.708;23.310;2022-12-07T06:48:20;94951.59;;;6.22;100.00
16451;BME280;12243;42.708;23.310;2022-12-07T06:50:48;94951.41;;;6.25;100.00
16451;BME280;12243;42.708;23.310;2022-12-07T06:53:15;94948.28;;;6.19;100.00
16451;BME280;12243;42.708;23.310;2022-12-07T06:55:42;94949.72;;;6.24;100.00
16451;BME280;12243;42.708;23.310;2022-12-07T06:58:09;94949.53;;;6.27;100.00
16451;BME280;12243;42.708;23.310;2022-12-07T07:00:35;94957.28;;;6.27;100.00
16451;BME280;12243;42.708;23.310;2022-12-07T07:03:02;94955.63;;;6.26;100.00
16451;BME280;12243;42.708;23.310;2022-12-07T07:05:29;94948.28;;;6.19;100.00
16451;BME280;12243;42.708;23.310;2022-12-07T07:07:58;94948.69;;;6.26;100.00
16451;BME280;12243;42.708;23.310;2022-12-07T07:10:24;94961.31;;;6.43;100.00
16451;BME280;12243;42.708;23.310;2022-12-07T07:12:51;94957.69;;;6.46;100.00
16451;BME280;12243;42.708;23.310;2022-12-07T07:15:18;94954.59;;;6.41;100.00
16451;BME280;12243;42.708;23.310;2022-12-07T07:17:45;94961.31;;;6.31;100.00
16451;BME280;12243;42.708;23.310;2022-12-07T07:20:12;94952.63;;;6.32;100.00
16451;BME280;12243;42.708;23.310;2022-12-07T07:22:39;94958.09;;;6.27;100.00
16451;BME280;12243;42.708;23.310;2022-12-07T07:25:08;94947.56;;;6.17;100.00
16451;BME280;12243;42.708;23.310;2022-12-07T07:27:35;94957.19;;;6.15;100.00
16451;BME280;12243;42.708;23.310;2022-12-07T07:30:02;94958.00;;;6.16;100.00
16451;BME280;12243;42.708;23.310;2022-12-07T07:32:29;94955.94;;;6.34;100.00
16451;BME280;12243;42.708;23.310;2022-12-07T07:34:56;94957.47;;;6.24;100.00
16451;BME280;12243;42.708;23.310;2022-12-07T07:37:26;94956.47;;;6.39;100.00
16451;BME280;12243;42.708;23.310;2022-12-07T07:39:53;94961.94;;;6.47;100.00
16451;BME280;12243;42.708;23.310;2022-12-07T07:42:21;94961.31;;;6.56;100.00
16451;BME280;12243;42.708;23.310;2022-12-07T07:44:48;94961.69;;;6.76;100.00
16451;BME280;12243;42.708;23.310;2022-12-07T07:47:15;94961.25;;;6.82;100.00
16451;BME280;12243;42.708;23.310;2022-12-07T07:49:42;94958.44;;;6.98;100.00
16451;BME280;12243;42.708;23.310;2022-12-07T07:52:09;94963.47;;;7.12;100.00
16451;BME280;12243;42.708;23.310;2022-12-07T07:54:36;94961.28;;;7.19;100.00
16451;BME280;12243;42.708;23.310;2022-12-07T07:57:06;94958.44;;;7.22;100.00
16451;BME280;12243;42.708;23.310;2022-12-07T07:59:34;94952.13;;;7.26;100.00
16451;BME280;12243;42.708;23.310;2022-12-07T08:02:01;94956.16;;;7.30;100.00
16451;BME280;12243;42.708;23.310;2022-12-07T08:04:29;94955.47;;;7.39;100.00
16451;BME280;12243;42.708;23.310;2022-12-07T08:06:57;94954.03;;;7.35;100.00
16451;BME280;12243;42.708;23.310;2022-12-07T08:09:24;94960.66;;;7.39;100.00
16451;BME280;12243;42.708;23.310;2022-12-07T08:11:51;94959.22;;;7.35;100.00
16451;BME280;12243;42.708;23.310;2022-12-07T08:14:18;94955.00;;;7.34;100.00
16451;BME280;12243;42.708;23.310;2022-12-07T08:16:46;94958.56;;;7.44;99.93
16451;BME280;12243;42.708;23.310;2022-12-07T08:19:13;94961.25;;;7.43;99.76
16451;BME280;12243;42.708;23.310;2022-12-07T08:21:40;94954.66;;;7.38;99.04
16451;BME280;12243;42.708;23.310;2022-12-07T08:24:07;94958.03;;;7.52;99.01
16451;BME280;12243;42.708;23.310;2022-12-07T08:26:34;94948.44;;;7.41;97.64
16451;BME280;12243;42.708;23.310;2022-12-07T08:29:01;94950.59;;;7.47;97.71
16451;BME280;12243;42.708;23.310;2022-12-07T08:31:28;94961.16;;;7.44;97.38
16451;BME280;12243;42.708;23.310;2022-12-07T08:33:56;94960.91;;;7.36;98.82
16451;BME280;12243;42.708;23.310;2022-12-07T08:36:23;94955.38;;;7.40;98.89
16451;BME280;12243;42.708;23.310;2022-12-07T08:38:50;94958.56;;;7.44;98.94
16451;BME280;12243;42.708;23.310;2022-12-07T08:41:17;94957.84;;;7.42;98.82
16451;BME280;12243;42.708;23.310;2022-12-07T08:43:44;94952.22;;;7.48;99.11
16451;BME280;12243;42.708;23.310;2022-12-07T08:46:14;94946.78;;;7.40;98.34
16451;BME280;12243;42.708;23.310;2022-12-07T08:48:48;94941.59;;;7.40;99.05
16451;BME280;12243;42.708;23.310;2022-12-07T08:51:17;94947.88;;;7.49;98.46
16451;BME280;12243;42.708;23.310;2022-12-07T08:53:44;94943.25;;;7.65;98.68
16451;BME280;12243;42.708;23.310;2022-12-07T08:56:14;94941.06;;;7.83;98.33
16451;BME280;12243;42.708;23.310;2022-12-07T08:58:41;94928.63;;;7.99;97.26
16451;BME280;12243;42.708;23.310;2022-12-07T09:01:08;94934.53;;;8.13;96.67
16451;BME280;12243;42.708;23.310;2022-12-07T09:03:35;94926.56;;;8.38;96.11
16451;BME280;12243;42.708;23.310;2022-12-07T09:06:03;94924.78;;;8.61;95.12
16451;BME280;12243;42.708;23.310;2022-12-07T09:08:37;94920.06;;;8.77;93.06
16451;BME280;12243;42.708;23.310;2022-12-07T09:11:05;94918.31;;;8.89;92.92
16451;BME280;12243;42.708;23.310;2022-12-07T09:13:32;94907.41;;;8.95;91.17
16451;BME280;12243;42.708;23.310;2022-12-07T09:16:02;94915.72;;;8.89;91.63
16451;BME280;12243;42.708;23.310;2022-12-07T09:18:29;94911.69;;;8.85;91.44
16451;BME280;12243;42.708;23.310;2022-12-07T09:20:56;94907.91;;;8.89;91.66
16451;BME280;12243;42.708;23.310;2022-12-07T09:23:24;94912.94;;;9.02;90.23
16451;BME280;12243;42.708;23.310;2022-12-07T09:25:52;94915.53;;;9.13;90.52
16451;BME280;12243;42.708;23.310;2022-12-07T09:28:19;94908.78;;;9.22;89.93
16451;BME280;12243;42.708;23.310;2022-12-07T09:30:46;94902.00;;;9.30;89.47
16451;BME280;12243;42.708;23.310;2022-12-07T09:33:13;94903.44;;;9.35;88.74
16451;BME280;12243;42.708;23.310;2022-12-07T09:35:44;94894.69;;;9.36;88.96
16451;BME280;12243;42.708;23.310;2022-12-07T09:38:11;94898.28;;;9.44;88.65
16451;BME280;12243;42.708;23.310;2022-12-07T09:40:39;94890.00;;;9.50;88.19
16451;BME280;12243;42.708;23.310;2022-12-07T09:43:12;94880.91;;;9.56;88.18
16451;BME280;12243;42.708;23.310;2022-12-07T09:45:41;94882.72;;;9.65;86.70
16451;BME280;12243;42.708;23.310;2022-12-07T09:48:17;94880.44;;;9.51;86.93
16451;BME280;12243;42.708;23.310;2022-12-07T09:50:46;94880.06;;;9.56;88.10
16451;BME280;12243;42.708;23.310;2022-12-07T09:53:15;94879.56;;;9.62;87.43
16451;BME280;12243;42.708;23.310;2022-12-07T09:55:43;94880.25;;;9.64;86.83
16451;BME280;12243;42.708;23.310;2022-12-07T09:58:18;94882.41;;;9.59;87.21
16451;BME280;12243;42.708;23.310;2022-12-07T10:00:47;94876.38;;;9.58;88.24
16451;BME280;12243;42.708;23.310;2022-12-07T10:03:14;94865.09;;;9.69;87.53
16451;BME280;12243;42.708;23.310;2022-12-07T10:05:43;94870.50;;;9.77;87.41
16451;BME280;12243;42.708;23.310;2022-12-07T10:08:12;94871.81;;;9.92;87.05
16451;BME280;12243;42.708;23.310;2022-12-07T10:10:41;94868.22;;;10.05;85.91
16451;BME280;12243;42.708;23.310;2022-12-07T10:13:10;94862.06;;;10.06;85.09
16451;BME280;12243;42.708;23.310;2022-12-07T10:15:51;94858.69;;;10.15;85.12
16451;BME280;12243;42.708;23.310;2022-12-07T10:18:28;94857.81;;;10.35;84.14
16451;BME280;12243;42.708;23.310;2022-12-07T10:21:04;94844.75;;;10.46;83.42
16451;BME280;12243;42.708;23.310;2022-12-07T10:23:38;94845.75;;;10.65;84.39
16451;BME280;12243;42.708;23.310;2022-12-07T10:26:32;94838.22;;;10.71;82.79
16451;BME280;12243;42.708;23.310;2022-12-07T10:29:00;94830.16;;;10.84;83.66
16451;BME280;12243;42.708;23.310;2022-12-07T10:31:29;94829.91;;;10.97;81.66
16451;BME280;12243;42.708;23.310;2022-12-07T10:33:58;94818.53;;;11.08;80.80
16451;BME280;12243;42.708;23.310;2022-12-07T10:36:27;94823.63;;;11.09;80.60
16451;BME280;12243;42.708;23.310;2022-12-07T10:39:00;94820.59;;;11.14;81.35
16451;BME280;12243;42.708;23.310;2022-12-07T10:41:28;94821.84;;;11.10;80.30
16451;BME280;12243;42.708;23.310;2022-12-07T10:43:56;94822.38;;;11.04;79.94
16451;BME280;12243;42.708;23.310;2022-12-07T10:46:59;94812.22;;;11.01;80.35
16451;BME280;12243;42.708;23.310;2022-12-07T10:52:58;94813.19;;;11.00;81.49
16451;BME280;12243;42.708;23.310;2022-12-07T10:55:35;94807.28;;;10.97;83.00
16451;BME280;12243;42.708;23.310;2022-12-07T10:58:22;94805.38;;;11.00;81.90
16451;BME280;12243;42.708;23.310;2022-12-07T11:00:58;94797.69;;;10.88;82.23
16451;BME280;12243;42.708;23.310;2022-12-07T11:03:39;94786.72;;;11.04;81.04
16451;BME280;12243;42.708;23.310;2022-12-07T11:06:20;94790.03;;;11.16;81.09
16451;BME280;12243;42.708;23.310;2022-12-07T11:09:08;94777.94;;;11.15;81.12
16451;BME280;12243;42.708;23.310;2022-12-07T11:11:47;94779.88;;;11.13;80.59
16451;BME280;12243;42.708;23.310;2022-12-07T11:14:23;94778.75;;;11.25;80.21
16451;BME280;12243;42.708;23.310;2022-12-07T11:16:56;94779.84;;;11.32;79.68
16451;BME280;12243;42.708;23.310;2022-12-07T11:19:45;94770.81;;;11.17;80.21
16451;BME280;12243;42.708;23.310;2022-12-07T11:22:20;94764.50;;;11.10;80.68
16451;BME280;12243;42.708;23.310;2022-12-07T11:24:55;94766.28;;;11.00;80.43
16451;BME280;12243;42.708;23.310;2022-12-07T11:27:32;94756.56;;;10.92;80.86
16451;BME280;12243;42.708;23.310;2022-12-07T11:30:13;94752.69;;;10.86;81.82
16451;BME280;12243;42.708;23.310;2022-12-07T11:33:02;94749.69;;;10.81;82.04
16451;BME280;12243;42.708;23.310;2022-12-07T11:35:38;94741.47;;;10.86;81.91
16451;BME280;12243;42.708;23.310;2022-12-07T11:38:13;94729.38;;;10.75;81.87
16451;BME280;12243;42.708;23.310;2022-12-07T11:40:43;94739.28;;;10.81;82.86
16451;BME280;12243;42.708;23.310;2022-12-07T11:43:19;94734.59;;;10.75;83.41
16451;BME280;12243;42.708;23.310;2022-12-07T11:45:53;94755.16;;;10.97;83.14
16451;BME280;12243;42.708;23.310;2022-12-07T11:48:27;94748.31;;;11.16;82.40
16451;BME280;12243;42.708;23.310;2022-12-07T11:50:59;94740.34;;;11.27;80.95
16451;BME280;12243;42.708;23.310;2022-12-07T11:53:31;94742.94;;;11.27;79.76
16451;BME280;12243;42.708;23.310;2022-12-07T11:56:03;94736.50;;;11.31;81.20
16451;BME280;12243;42.708;23.310;2022-12-07T11:58:48;94731.53;;;11.48;80.20
16451;BME280;12243;42.708;23.310;2022-12-07T12:01:25;94717.50;;;11.58;79.75
16451;BME280;12243;42.708;23.310;2022-12-07T12:04:00;94719.91;;;11.79;79.83
16451;BME280;12243;42.708;23.310;2022-12-07T12:06:29;94718.13;;;11.89;78.20
16451;BME280;12243;42.708;23.310;2022-12-07T12:09:01;94707.78;;;11.98;78.20
16451;BME280;12243;42.708;23.310;2022-12-07T12:11:43;94702.41;;;11.99;77.86
16451;BME280;12243;42.708;23.310;2022-12-07T12:14:41;94696.84;;;11.84;77.85
16451;BME280;12243;42.708;23.310;2022-12-07T12:17:31;94698.47;;;11.85;78.02
16451;BME280;12243;42.708;23.310;2022-12-07T12:20:07;94695.31;;;11.91;78.32
16451;BME280;12243;42.708;23.310;2022-12-07T12:22:46;94699.25;;;11.96;77.73
16451;BME280;12243;42.708;23.310;2022-12-07T12:25:20;94688.78;;;12.05;77.04
16451;BME280;12243;42.708;23.310;2022-12-07T12:27:49;94683.56;;;12.05;76.52
16451;BME280;12243;42.708;23.310;2022-12-07T12:30:31;94691.59;;;11.94;77.53
16451;BME280;12243;42.708;23.310;2022-12-07T12:33:05;94687.72;;;11.98;77.62
16451;BME280;12243;42.708;23.310;2022-12-07T12:35:35;94678.88;;;12.09;76.46
16451;BME280;12243;42.708;23.310;2022-12-07T12:38:25;94669.25;;;12.09;76.85
16451;BME280;12243;42.708;23.310;2022-12-07T12:40:52;94667.09;;;12.05;76.38
16451;BME280;12243;42.708;23.310;2022-12-07T12:43:45;94663.97;;;12.19;76.52
16451;BME280;12243;42.708;23.310;2022-12-07T12:46:49;94672.72;;;12.28;75.63
16451;BME280;12243;42.708;23.310;2022-12-07T12:49:54;94672.56;;;12.29;75.74
16451;BME280;12243;42.708;23.310;2022-12-07T12:52:54;94671.19;;;12.07;76.45
16451;BME280;12243;42.708;23.310;2022-12-07T12:58:46;94664.94;;;12.18;76.58
16451;BME280;12243;42.708;23.310;2022-12-07T13:01:43;94671.97;;;12.18;75.97
16451;BME280;12243;42.708;23.310;2022-12-07T13:04:38;94673.06;;;12.15;76.30
16451;BME280;12243;42.708;23.310;2022-12-07T13:07:13;94679.88;;;12.26;75.96
16451;BME280;12243;42.708;23.310;2022-12-07T13:10:02;94677.47;;;12.14;76.03
16451;BME280;12243;42.708;23.310;2022-12-07T13:12:30;94673.06;;;12.15;76.18
16451;BME280;12243;42.708;23.310;2022-12-07T13:14:58;94678.00;;;11.90;78.01
16451;BME280;12243;42.708;23.310;2022-12-07T13:17:58;94672.25;;;11.77;78.28
16451;BME280;12243;42.708;23.310;2022-12-07T13:20:46;94671.00;;;11.81;79.09
16451;BME280;12243;42.708;23.310;2022-12-07T13:23:29;94664.44;;;11.87;79.33